Time;durP1;ratioP1;P1;durP2;ratioP2;P2;SDS_P1;SDS_P2;PMS_P1;PMS_P2;Temp;Humidity;BMP_temperature;BMP_pressure;BME280_temperature;BME280_humidity;BME280_pressure;Samples;Min_cycle;Max_cycle;Signal;HPM_P1;HPM_P2
2022/01/22 00:02:08;;;;;;;1.02;0.75;;;;;;;;;;6205431;23;20099;-39
2022/01/22 00:04:34;;;;;;;0.90;0.70;;;;;;;;;;6204712;23;20016;-40
2022/01/22 00:07:02;;;;;;;0.73;0.73;;;;;;;;;;6205312;23;20106;-39
2022/01/22 00:09:35;;;;;;;0.60;0.60;;;;;;;;;;6203412;23;20012;-40
2022/01/22 00:12:00;;;;;;;0.90;0.90;;;;;;;;;;6205053;23;20457;-41
2022/01/22 00:14:25;;;;;;;0.50;0.50;;;;;;;;;;6153172;23;20021;-39
2022/01/22 00:16:51;;;;;;;0.60;0.60;;;;;;;;;;6204849;23;20120;-39
2022/01/22 00:19:17;;;;;;;0.65;0.65;;;;;;;;;;6204411;23;20451;-39
2022/01/22 00:21:42;;;;;;;0.50;0.50;;;;;;;;;;6204101;23;20059;-39
2022/01/22 00:24:10;;;;;;;0.80;0.80;;;;;;;;;;6204769;23;20028;-39
2022/01/22 00:26:35;;;;;;;0.90;0.90;;;;;;;;;;6204351;23;20007;-39
2022/01/22 00:29:01;;;;;;;0.73;0.60;;;;;;;;;;6204781;23;20012;-39
2022/01/22 00:31:26;;;;;;;0.90;0.88;;;;;;;;;;6203612;23;20016;-39
2022/01/22 00:33:51;;;;;;;0.32;0.32;;;;;;;;;;6204784;23;20023;-40
2022/01/22 00:36:17;;;;;;;0.50;0.50;;;;;;;;;;6152337;23;20037;-40
2022/01/22 00:38:42;;;;;;;0.75;0.75;;;;;;;;;;6205193;23;20427;-40
2022/01/22 00:41:07;;;;;;;0.55;0.55;;;;;;;;;;6202147;23;20146;-40
2022/01/22 00:43:33;;;;;;;1.17;0.90;;;;;;;;;;6203839;23;20020;-41
2022/01/22 00:45:59;;;;;;;0.50;0.50;;;;;;;;;;6205763;23;20015;-40
2022/01/22 00:48:24;;;;;;;0.50;0.50;;;;;;;;;;6205945;23;20096;-39
2022/01/22 00:50:53;;;;;;;0.60;0.60;;;;;;;;;;6206652;23;20052;-39
2022/01/22 00:53:19;;;;;;;0.63;0.63;;;;;;;;;;6206759;23;20079;-39
2022/01/22 00:55:44;;;;;;;0.50;0.50;;;;;;;;;;6207437;23;20008;-39
2022/01/22 00:58:09;;;;;;;0.60;0.60;;;;;;;;;;6206553;23;20067;-39
2022/01/22 01:00:34;;;;;;;0.60;0.60;;;;;;;;;;6206206;23;20013;-39
2022/01/22 01:03:00;;;;;;;0.50;0.50;;;;;;;;;;6206162;23;20143;-39
2022/01/22 01:05:25;;;;;;;0.30;0.30;;;;;;;;;;6206691;23;20013;-39
2022/01/22 01:07:50;;;;;;;0.40;0.40;;;;;;;;;;6207283;23;20335;-39
2022/01/22 01:10:17;;;;;;;0.60;0.60;;;;;;;;;;6206354;23;20013;-39
2022/01/22 01:12:42;;;;;;;0.52;0.52;;;;;;;;;;6206848;23;20761;-40
2022/01/22 01:18:03;;;;;;;1.48;0.45;;;;;;;;;;6206627;23;20024;-39
2022/01/22 01:36:36;;;;;;;0.77;0.50;;;;;;;;;;6206420;23;20012;-39
2022/01/22 01:39:04;;;;;;;0.30;0.30;;;;;;;;;;6207125;23;20091;-38
2022/01/22 01:41:39;;;;;;;0.50;0.50;;;;;;;;;;6207451;23;20012;-39
2022/01/22 01:44:05;;;;;;;0.40;0.40;;;;;;;;;;6209096;23;20066;-39
2022/01/22 01:46:32;;;;;;;0.40;0.30;;;;;;;;;;6207969;23;20009;-39
2022/01/22 01:48:58;;;;;;;0.85;0.50;;;;;;;;;;6209365;23;20023;-40
2022/01/22 01:51:27;;;;;;;0.73;0.50;;;;;;;;;;6207418;23;20027;-39
2022/01/22 01:59:04;;;;;;;0.30;0.30;;;;;;;;;;6208504;23;20019;-42
2022/01/22 02:01:29;;;;;;;0.55;0.55;;;;;;;;;;6207523;23;20425;-39
2022/01/22 02:03:54;;;;;;;0.40;0.40;;;;;;;;;;6209240;23;20019;-39
2022/01/22 02:06:19;;;;;;;0.60;0.50;;;;;;;;;;6208031;23;20087;-39
2022/01/22 02:08:45;;;;;;;0.55;0.40;;;;;;;;;;6208983;23;20012;-40
2022/01/22 02:11:12;;;;;;;0.32;0.32;;;;;;;;;;6208559;23;20091;-39
2022/01/22 02:24:28;;;;;;;0.60;0.60;;;;;;;;;;6126633;23;20017;-38
2022/01/22 02:26:53;;;;;;;1.45;0.90;;;;;;;;;;6177776;23;20012;-40
2022/01/22 02:29:19;;;;;;;0.50;0.50;;;;;;;;;;6204271;23;20458;-40
2022/01/22 02:32:01;;;;;;;0.50;0.50;;;;;;;;;;6207652;23;20024;-39
2022/01/22 02:34:38;;;;;;;0.73;0.50;;;;;;;;;;6208062;23;20024;-39
2022/01/22 02:37:11;;;;;;;0.45;0.45;;;;;;;;;;6204610;23;20004;-39
2022/01/22 02:42:24;;;;;;;0.57;0.57;;;;;;;;;;6207477;23;20069;-39
2022/01/22 02:44:49;;;;;;;0.60;0.60;;;;;;;;;;6207341;23;20084;-40
2022/01/22 02:47:16;;;;;;;0.60;0.60;;;;;;;;;;6206235;23;20059;-40
2022/01/22 02:49:41;;;;;;;0.70;0.70;;;;;;;;;;6208278;23;20013;-39
2022/01/22 02:52:10;;;;;;;0.70;0.70;;;;;;;;;;6207268;23;20035;-41
2022/01/22 02:54:36;;;;;;;0.60;0.60;;;;;;;;;;6207352;23;20013;-40
2022/01/22 02:57:01;;;;;;;0.73;0.73;;;;;;;;;;6207718;23;20084;-39
2022/01/22 02:59:26;;;;;;;1.05;0.70;;;;;;;;;;6207995;23;20338;-39
2022/01/22 03:01:54;;;;;;;0.60;0.60;;;;;;;;;;6207139;23;20004;-39
2022/01/22 03:04:19;;;;;;;1.15;0.77;;;;;;;;;;6208606;23;20028;-39
2022/01/22 03:06:46;;;;;;;0.70;0.70;;;;;;;;;;6209764;23;20005;-40
2022/01/22 03:09:14;;;;;;;2.15;0.93;;;;;;;;;;6208742;23;20012;-39
2022/01/22 03:22:25;;;;;;;0.40;0.40;;;;;;;;;;6206996;23;20008;-39
2022/01/22 03:27:34;;;;;;;0.85;0.80;;;;;;;;;;6206365;23;20322;-39
2022/01/22 03:30:00;;;;;;;0.80;0.80;;;;;;;;;;6207714;23;20009;-39
2022/01/22 03:32:30;;;;;;;1.15;0.60;;;;;;;;;;6205985;23;20016;-39
2022/01/22 03:35:08;;;;;;;0.77;0.77;;;;;;;;;;6207720;23;20163;-40
2022/01/22 03:37:33;;;;;;;0.80;0.80;;;;;;;;;;6206544;23;20039;-39
2022/01/22 03:39:58;;;;;;;0.65;0.65;;;;;;;;;;6206823;23;20438;-39
2022/01/22 03:42:24;;;;;;;0.80;0.80;;;;;;;;;;6206305;23;20009;-39
2022/01/22 03:44:49;;;;;;;0.70;0.70;;;;;;;;;;6206038;23;20016;-39
2022/01/22 03:47:14;;;;;;;0.60;0.60;;;;;;;;;;6206571;23;20067;-40
2022/01/22 03:49:40;;;;;;;0.80;0.80;;;;;;;;;;6206658;23;20008;-39
2022/01/22 03:52:05;;;;;;;0.60;0.60;;;;;;;;;;6207643;23;20590;-40
2022/01/22 03:54:30;;;;;;;0.80;0.80;;;;;;;;;;6206389;23;20563;-39
2022/01/22 03:56:56;;;;;;;0.70;0.70;;;;;;;;;;6206558;23;20087;-39
2022/01/22 03:59:21;;;;;;;0.80;0.80;;;;;;;;;;6178940;23;20044;-41
2022/01/22 04:09:32;;;;;;;0.70;0.70;;;;;;;;;;6206524;23;20021;-41
2022/01/22 04:11:59;;;;;;;0.73;0.73;;;;;;;;;;6206856;23;20074;-39
2022/01/22 04:14:28;;;;;;;0.60;0.60;;;;;;;;;;6206468;23;20020;-40
2022/01/22 04:24:55;;;;;;;0.60;0.60;;;;;;;;;;6206571;23;20067;-39
2022/01/22 04:27:24;;;;;;;0.60;0.60;;;;;;;;;;6205849;23;20090;-39
2022/01/22 04:29:50;;;;;;;0.80;0.80;;;;;;;;;;6208094;23;20008;-39
2022/01/22 04:32:15;;;;;;;0.75;0.75;;;;;;;;;;6205756;23;20100;-40
2022/01/22 04:34:41;;;;;;;0.70;0.70;;;;;;;;;;6180305;23;20051;-39
2022/01/22 04:37:06;;;;;;;0.80;0.80;;;;;;;;;;6206910;23;20088;-40
2022/01/22 04:39:31;;;;;;;1.42;0.80;;;;;;;;;;6206265;23;20084;-39
2022/01/22 04:41:57;;;;;;;0.60;0.60;;;;;;;;;;6206257;23;20083;-40
2022/01/22 04:44:29;;;;;;;0.65;0.65;;;;;;;;;;6206413;23;20035;-39
2022/01/22 04:57:20;;;;;;;0.80;0.80;;;;;;;;;;6206641;23;20023;-39
2022/01/22 04:59:45;;;;;;;0.98;0.90;;;;;;;;;;6205869;23;20008;-39
2022/01/22 05:02:11;;;;;;;1.48;0.95;;;;;;;;;;6206875;23;20025;-39
2022/01/22 05:04:36;;;;;;;1.40;1.30;;;;;;;;;;6205461;23;20020;-40
2022/01/22 05:07:01;;;;;;;1.25;1.15;;;;;;;;;;6207059;23;20418;-40
2022/01/22 05:09:27;;;;;;;1.15;1.15;;;;;;;;;;6205349;23;20047;-40
2022/01/22 05:11:52;;;;;;;1.15;0.90;;;;;;;;;;6207212;23;20446;-39
2022/01/22 05:14:18;;;;;;;1.27;1.17;;;;;;;;;;6206058;23;20345;-39
2022/01/22 05:16:43;;;;;;;1.33;1.30;;;;;;;;;;6209260;23;20461;-39
2022/01/22 05:19:18;;;;;;;1.73;1.00;;;;;;;;;;6208305;23;20016;-39
2022/01/22 05:21:44;;;;;;;1.33;1.23;;;;;;;;;;6208428;23;20015;-39
2022/01/22 05:24:15;;;;;;;1.00;1.00;;;;;;;;;;6208187;23;20051;-39
2022/01/22 05:39:21;;;;;;;1.10;1.10;;;;;;;;;;6209291;23;20012;-39
2022/01/22 05:41:46;;;;;;;1.10;1.10;;;;;;;;;;6207394;23;20501;-42
2022/01/22 05:44:11;;;;;;;2.25;1.75;;;;;;;;;;6208361;23;20021;-39
2022/01/22 05:46:36;;;;;;;1.27;1.17;;;;;;;;;;6207480;23;20086;-39
2022/01/22 05:49:02;;;;;;;1.75;1.58;;;;;;;;;;6208331;23;20102;-39
2022/01/22 05:51:27;;;;;;;1.50;1.40;;;;;;;;;;6206542;23;20059;-39
2022/01/22 06:01:47;;;;;;;1.50;1.40;;;;;;;;;;6207248;23;20020;-39
2022/01/22 06:04:12;;;;;;;1.60;1.50;;;;;;;;;;6207773;23;20024;-40
2022/01/22 06:06:37;;;;;;;1.35;1.30;;;;;;;;;;6207856;23;20017;-39
2022/01/22 06:09:07;;;;;;;1.50;1.40;;;;;;;;;;6208458;23;20012;-39
2022/01/22 06:11:40;;;;;;;1.38;1.33;;;;;;;;;;6207491;23;20074;-39
2022/01/22 06:14:05;;;;;;;1.48;1.38;;;;;;;;;;6207894;23;20327;-40
2022/01/22 06:16:30;;;;;;;1.27;1.20;;;;;;;;;;6208161;23;20466;-39
2022/01/22 06:18:56;;;;;;;1.23;1.23;;;;;;;;;;6208038;23;20127;-39
2022/01/22 06:21:21;;;;;;;1.60;1.50;;;;;;;;;;6208992;23;20015;-39
2022/01/22 06:23:46;;;;;;;1.35;1.25;;;;;;;;;;6208411;23;20071;-39
2022/01/22 06:26:12;;;;;;;1.48;1.38;;;;;;;;;;6208023;23;20020;-41
2022/01/22 06:28:38;;;;;;;1.50;1.40;;;;;;;;;;6208292;23;20343;-39
2022/01/22 06:31:03;;;;;;;1.80;1.70;;;;;;;;;;6208444;23;20009;-40
2022/01/22 06:33:29;;;;;;;1.95;1.85;;;;;;;;;;6206521;23;20012;-40
2022/01/22 06:35:54;;;;;;;1.60;1.50;;;;;;;;;;6208685;23;20005;-40
2022/01/22 06:38:19;;;;;;;1.50;1.40;;;;;;;;;;6207265;23;20040;-42
2022/01/22 06:43:29;;;;;;;1.58;1.48;;;;;;;;;;6207581;23;20032;-40
2022/01/22 06:45:54;;;;;;;1.58;1.48;;;;;;;;;;6208522;23;20012;-40
2022/01/22 06:48:20;;;;;;;1.45;1.38;;;;;;;;;;6206985;23;20009;-40
2022/01/22 06:50:45;;;;;;;1.50;1.40;;;;;;;;;;6208580;23;20044;-40
2022/01/22 06:53:10;;;;;;;1.55;1.45;;;;;;;;;;6207891;23;20020;-40
2022/01/22 06:55:43;;;;;;;1.73;1.60;;;;;;;;;;6207918;23;20011;-40
2022/01/22 06:58:08;;;;;;;1.65;1.55;;;;;;;;;;6207681;23;20017;-39
2022/01/22 07:00:34;;;;;;;1.65;1.52;;;;;;;;;;6207677;23;20054;-39
2022/01/22 07:02:59;;;;;;;1.90;1.80;;;;;;;;;;6207490;23;20020;-40
2022/01/22 07:05:24;;;;;;;1.50;1.40;;;;;;;;;;6207838;23;20338;-40
2022/01/22 07:07:49;;;;;;;1.73;1.63;;;;;;;;;;6208431;23;20058;-39
2022/01/22 07:10:15;;;;;;;2.22;2.03;;;;;;;;;;6207874;23;20017;-39
2022/01/22 07:12:41;;;;;;;2.58;1.77;;;;;;;;;;6207581;23;20024;-42
2022/01/22 07:15:06;;;;;;;1.70;1.48;;;;;;;;;;6207982;23;20087;-39
2022/01/22 07:17:37;;;;;;;1.50;1.40;;;;;;;;;;6207034;23;20012;-39
2022/01/22 07:20:10;;;;;;;1.75;1.65;;;;;;;;;;6207817;23;20435;-40
2022/01/22 07:25:04;;;;;;;1.77;1.67;;;;;;;;;;6207715;23;20090;-39
2022/01/22 07:27:29;;;;;;;2.25;1.65;;;;;;;;;;6180280;23;20331;-39
2022/01/22 07:29:54;;;;;;;1.70;1.60;;;;;;;;;;6208314;23;20012;-39
2022/01/22 07:32:29;;;;;;;1.95;1.85;;;;;;;;;;6206424;23;20017;-39
2022/01/22 07:34:54;;;;;;;1.70;1.60;;;;;;;;;;6207972;23;20027;-39
2022/01/22 07:37:20;;;;;;;2.28;2.03;;;;;;;;;;6206481;23;20482;-39
2022/01/22 07:39:45;;;;;;;3.38;1.88;;;;;;;;;;6207788;23;20398;-40
2022/01/22 07:42:10;;;;;;;1.80;1.70;;;;;;;;;;6207192;23;20116;-39
2022/01/22 07:44:35;;;;;;;2.10;2.00;;;;;;;;;;6207023;23;20016;-39
2022/01/22 07:47:01;;;;;;;1.92;1.83;;;;;;;;;;6207196;23;20005;-39
2022/01/22 07:49:26;;;;;;;1.92;1.83;;;;;;;;;;6207748;23;20017;-39
2022/01/22 07:51:51;;;;;;;1.90;1.80;;;;;;;;;;6206906;23;20013;-39
2022/01/22 07:54:17;;;;;;;1.80;1.70;;;;;;;;;;6207100;23;20092;-41
2022/01/22 07:56:42;;;;;;;1.85;1.75;;;;;;;;;;6208278;23;20075;-42
2022/01/22 07:59:08;;;;;;;2.03;1.92;;;;;;;;;;6209755;23;20083;-40
2022/01/22 08:01:33;;;;;;;3.15;1.80;;;;;;;;;;6208079;23;20453;-39
2022/01/22 08:03:58;;;;;;;2.10;2.00;;;;;;;;;;6209521;23;20020;-42
2022/01/22 08:06:24;;;;;;;2.25;2.15;;;;;;;;;;6207490;23;20425;-40
2022/01/22 08:08:49;;;;;;;2.10;1.90;;;;;;;;;;6209260;23;20012;-41
2022/01/22 08:11:14;;;;;;;1.70;1.60;;;;;;;;;;6207353;23;20015;-41
2022/01/22 08:13:40;;;;;;;2.00;1.90;;;;;;;;;;6208438;23;20008;-40
2022/01/22 08:16:05;;;;;;;2.15;1.95;;;;;;;;;;6207177;23;20012;-41
2022/01/22 08:18:31;;;;;;;2.20;2.10;;;;;;;;;;6206670;23;20009;-39
2022/01/22 08:20:56;;;;;;;1.92;1.83;;;;;;;;;;6206940;23;20450;-41
2022/01/22 08:23:23;;;;;;;2.00;1.80;;;;;;;;;;6206629;23;20561;-40
2022/01/22 08:25:49;;;;;;;1.90;1.80;;;;;;;;;;6207389;23;20004;-39
2022/01/22 08:31:03;;;;;;;1.83;1.73;;;;;;;;;;6208213;23;20075;-40
2022/01/22 08:35:52;;;;;;;2.10;1.98;;;;;;;;;;6206147;23;20020;-40
2022/01/22 08:36:17;;;;;;;1.95;1.85;;;;;;;;;;6206812;23;20080;-39
2022/01/22 08:38:42;;;;;;;1.70;1.60;;;;;;;;;;6207003;23;20036;-43
2022/01/22 08:41:09;;;;;;;1.90;1.80;;;;;;;;;;6205491;23;20050;-42
2022/01/22 08:43:34;;;;;;;1.90;1.80;;;;;;;;;;6205620;23;20108;-43
2022/01/22 08:46:02;;;;;;;1.90;1.80;;;;;;;;;;6207229;23;20431;-39
2022/01/22 08:48:27;;;;;;;1.95;1.85;;;;;;;;;;6205311;23;20725;-41
2022/01/22 08:50:52;;;;;;;2.08;1.90;;;;;;;;;;6206913;23;20075;-41
2022/01/22 08:53:18;;;;;;;2.00;1.90;;;;;;;;;;6204060;23;20020;-39
2022/01/22 08:55:43;;;;;;;1.90;1.80;;;;;;;;;;6205798;23;20024;-40
2022/01/22 08:58:08;;;;;;;1.90;1.80;;;;;;;;;;6206214;23;20361;-39
2022/01/22 09:00:34;;;;;;;2.35;1.77;;;;;;;;;;6206271;23;20036;-40
2022/01/22 09:02:59;;;;;;;1.92;1.83;;;;;;;;;;6206476;23;20016;-39
2022/01/22 09:05:31;;;;;;;1.88;1.77;;;;;;;;;;6206116;23;20020;-39
2022/01/22 09:07:56;;;;;;;2.65;2.33;;;;;;;;;;6206409;23;20305;-41
2022/01/22 09:10:22;;;;;;;2.03;1.92;;;;;;;;;;6206356;23;20478;-40
2022/01/22 09:12:47;;;;;;;1.98;1.88;;;;;;;;;;6206478;23;20088;-39
2022/01/22 09:15:12;;;;;;;1.88;1.77;;;;;;;;;;6206580;23;20008;-43
2022/01/22 09:17:39;;;;;;;1.77;1.67;;;;;;;;;;6206514;23;20032;-39
2022/01/22 09:20:09;;;;;;;2.10;2.00;;;;;;;;;;6207095;23;20517;-40
2022/01/22 09:22:34;;;;;;;2.08;1.98;;;;;;;;;;6206002;23;20013;-40
2022/01/22 09:24:59;;;;;;;2.10;1.90;;;;;;;;;;6206510;23;20031;-40
2022/01/22 09:27:25;;;;;;;2.03;1.92;;;;;;;;;;6205795;23;20019;-39
2022/01/22 09:29:50;;;;;;;1.92;1.83;;;;;;;;;;6207256;23;20150;-40
2022/01/22 09:32:15;;;;;;;1.90;1.80;;;;;;;;;;6205579;23;20045;-40
2022/01/22 09:34:41;;;;;;;2.55;2.15;;;;;;;;;;6206417;23;20087;-40
2022/01/22 09:37:06;;;;;;;2.33;2.15;;;;;;;;;;6206385;23;20025;-40
2022/01/22 09:39:31;;;;;;;2.17;2.08;;;;;;;;;;6206202;23;20025;-39
2022/01/22 09:41:58;;;;;;;2.67;2.10;;;;;;;;;;6205826;23;20008;-40
2022/01/22 09:44:23;;;;;;;3.90;2.00;;;;;;;;;;6206177;23;20070;-39
2022/01/22 09:46:50;;;;;;;2.63;2.42;;;;;;;;;;6206327;23;20084;-39
2022/01/22 09:49:15;;;;;;;1.88;1.77;;;;;;;;;;6204680;23;20017;-39
2022/01/22 09:51:40;;;;;;;1.50;1.40;;;;;;;;;;6206107;23;20020;-39
2022/01/22 09:54:06;;;;;;;2.25;2.15;;;;;;;;;;6206917;23;20013;-39
2022/01/22 09:56:32;;;;;;;2.00;1.90;;;;;;;;;;6205427;23;20016;-40
2022/01/22 09:58:59;;;;;;;2.38;1.65;;;;;;;;;;6206754;23;20012;-40
2022/01/22 10:01:33;;;;;;;3.47;1.80;;;;;;;;;;6206378;23;20013;-39
2022/01/22 10:03:59;;;;;;;2.20;2.10;;;;;;;;;;6208775;23;20514;-39
2022/01/22 10:06:26;;;;;;;1.85;1.75;;;;;;;;;;6207559;23;20490;-40
2022/01/22 10:08:56;;;;;;;1.50;1.50;;;;;;;;;;6209094;23;20008;-42
2022/01/22 10:11:21;;;;;;;;;;;;;;;;;;6207582;23;20012;-39
2022/01/22 10:13:47;;;;;;;1.92;1.70;;;;;;;;;;6208731;23;19904;-39
2022/01/22 10:16:23;;;;;;;1.90;1.70;;;;;;;;;;6207179;23;20016;-39
2022/01/22 10:19:07;;;;;;;1.90;1.80;;;;;;;;;;6208442;23;20005;-40
2022/01/22 10:21:33;;;;;;;2.30;2.20;;;;;;;;;;6207966;23;20016;-39
2022/01/22 10:24:30;;;;;;;1.90;1.80;;;;;;;;;;6207250;23;20024;-40
2022/01/22 10:27:35;;;;;;;1.60;1.50;;;;;;;;;;6147483;23;20144;-40
2022/01/22 10:30:10;;;;;;;1.90;1.80;;;;;;;;;;6206389;23;20016;-39
2022/01/22 10:35:24;;;;;;;1.90;1.80;;;;;;;;;;6207119;23;20086;-39
2022/01/22 10:37:49;;;;;;;;;;;;;;;;;;6209674;23;20013;-39
2022/01/22 10:40:15;;;;;;;1.73;1.63;;;;;;;;;;6206936;23;19942;-39
2022/01/22 10:42:41;;;;;;;1.70;1.60;;;;;;;;;;6208329;23;20082;-39
2022/01/22 10:45:09;;;;;;;1.60;1.50;;;;;;;;;;6207502;23;20020;-39
2022/01/22 10:47:34;;;;;;;3.10;1.60;;;;;;;;;;6208017;23;20086;-39
2022/01/22 10:50:15;;;;;;;1.60;1.50;;;;;;;;;;6207385;23;20008;-39
2022/01/22 10:52:50;;;;;;;1.92;1.80;;;;;;;;;;6148479;23;20022;-39
2022/01/22 10:55:15;;;;;;;1.70;1.60;;;;;;;;;;6147885;23;20036;-39
2022/01/22 10:58:00;;;;;;;1.95;1.85;;;;;;;;;;6146503;23;20002;-40
2022/01/22 11:00:26;;;;;;;2.17;1.77;;;;;;;;;;6147161;23;20013;-41
2022/01/22 11:02:51;;;;;;;1.90;1.80;;;;;;;;;;6145568;23;20498;-39
2022/01/22 11:05:32;;;;;;;2.08;1.73;;;;;;;;;;6146122;23;20439;-39
2022/01/22 11:08:12;;;;;;;2.08;1.88;;;;;;;;;;6147626;23;20072;-39
2022/01/22 11:10:38;;;;;;;1.48;1.38;;;;;;;;;;6146977;23;20021;-40
2022/01/22 11:13:04;;;;;;;2.08;1.95;;;;;;;;;;6148189;23;20010;-40
2022/01/22 11:15:29;;;;;;;1.75;1.65;;;;;;;;;;6146730;23;20013;-40
2022/01/22 11:17:55;;;;;;;1.80;1.70;;;;;;;;;;6148139;23;20021;-39
2022/01/22 11:20:20;;;;;;;2.15;2.05;;;;;;;;;;6147039;23;20017;-40
2022/01/22 11:22:46;;;;;;;2.40;2.20;;;;;;;;;;6148652;23;20024;-40
2022/01/22 11:25:11;;;;;;;1.60;1.50;;;;;;;;;;6146819;23;20096;-42
2022/01/22 11:27:37;;;;;;;1.88;1.77;;;;;;;;;;6148270;23;20043;-40
2022/01/22 11:30:06;;;;;;;2.47;2.28;;;;;;;;;;6147958;23;20073;-40
2022/01/22 11:32:34;;;;;;;1.90;1.80;;;;;;;;;;6147884;23;20081;-41
2022/01/22 11:35:02;;;;;;;2.40;2.15;;;;;;;;;;6147879;23;20100;-39
2022/01/22 11:37:33;;;;;;;2.28;2.17;;;;;;;;;;6147759;23;20024;-40
2022/01/22 11:40:09;;;;;;;2.00;1.90;;;;;;;;;;6170388;23;20014;-40
2022/01/22 11:42:55;;;;;;;2.40;2.30;;;;;;;;;;6147630;23;20014;-40
2022/01/22 11:45:24;;;;;;;2.13;2.03;;;;;;;;;;6146631;23;20097;-40
2022/01/22 11:48:09;;;;;;;2.25;2.15;;;;;;;;;;6148297;23;20056;-40
2022/01/22 11:50:34;;;;;;;2.00;1.90;;;;;;;;;;6149854;23;20025;-40
2022/01/22 11:53:19;;;;;;;2.35;1.88;;;;;;;;;;6197146;23;20384;-39
2022/01/22 11:56:04;;;;;;;2.20;1.70;;;;;;;;;;6204853;23;20074;-39
2022/01/22 11:58:29;;;;;;;2.05;1.95;;;;;;;;;;6204036;23;20013;-40
2022/01/22 12:00:55;;;;;;;2.42;2.22;;;;;;;;;;6204961;23;20004;-39
2022/01/22 12:03:20;;;;;;;2.67;2.35;;;;;;;;;;6203084;23;20082;-40
2022/01/22 12:05:54;;;;;;;1.95;1.85;;;;;;;;;;6204758;23;20016;-40
2022/01/22 12:08:20;;;;;;;2.25;2.10;;;;;;;;;;6204411;23;20016;-41
2022/01/22 12:16:39;;;;;;;2.45;2.30;;;;;;;;;;6175676;23;20020;-42
2022/01/22 12:19:10;;;;;;;2.20;2.03;;;;;;;;;;6197918;23;20015;-40
2022/01/22 12:21:36;;;;;;;2.00;1.90;;;;;;;;;;6204231;23;20016;-41
2022/01/22 12:24:05;;;;;;;2.00;1.90;;;;;;;;;;6204181;23;20020;-41
2022/01/22 12:26:41;;;;;;;2.10;2.00;;;;;;;;;;6204061;23;22294;-43
2022/01/22 12:29:25;;;;;;;2.00;1.90;;;;;;;;;;6204358;23;20023;-39
2022/01/22 12:32:09;;;;;;;1.77;1.67;;;;;;;;;;6205433;23;20023;-40
2022/01/22 12:35:11;;;;;;;2.03;1.92;;;;;;;;;;6205108;23;20391;-40
2022/01/22 12:37:40;;;;;;;3.13;2.28;;;;;;;;;;6114567;23;20453;-40
2022/01/22 12:40:06;;;;;;;1.85;1.75;;;;;;;;;;6190129;23;20721;-40
2022/01/22 12:42:51;;;;;;;2.00;1.90;;;;;;;;;;6206721;23;20024;-40
2022/01/22 12:45:17;;;;;;;1.90;1.80;;;;;;;;;;6206559;23;20025;-41
2022/01/22 12:47:47;;;;;;;2.20;2.10;;;;;;;;;;6207605;23;20008;-40
2022/01/22 12:50:13;;;;;;;2.72;1.73;;;;;;;;;;6205938;23;20013;-40
2022/01/22 12:52:41;;;;;;;2.00;1.90;;;;;;;;;;6207633;23;20688;-40
2022/01/22 12:55:16;;;;;;;1.63;1.52;;;;;;;;;;6206476;23;20012;-40
2022/01/22 12:57:42;;;;;;;1.73;1.63;;;;;;;;;;6207198;23;20087;-41
2022/01/22 13:02:41;;;;;;;2.20;2.00;;;;;;;;;;6208022;23;20063;-40
2022/01/22 13:05:07;;;;;;;1.80;1.70;;;;;;;;;;6208271;23;20013;-42
2022/01/22 13:07:54;;;;;;;1.90;1.80;;;;;;;;;;6207251;23;20063;-40
2022/01/22 13:10:27;;;;;;;1.85;1.70;;;;;;;;;;6207830;23;20023;-40
2022/01/22 13:12:55;;;;;;;1.52;1.45;;;;;;;;;;6207041;23;20020;-40
2022/01/22 13:15:20;;;;;;;1.60;1.50;;;;;;;;;;6206904;23;20020;-41
2022/01/22 13:17:51;;;;;;;1.73;1.63;;;;;;;;;;6207483;23;20051;-40
2022/01/22 13:20:21;;;;;;;2.03;1.80;;;;;;;;;;6206700;23;20489;-40
2022/01/22 13:22:46;;;;;;;2.10;2.00;;;;;;;;;;6206789;23;20012;-40
2022/01/22 13:25:12;;;;;;;1.83;1.73;;;;;;;;;;6206274;23;20082;-39
2022/01/22 13:27:38;;;;;;;1.75;1.65;;;;;;;;;;6206320;23;20012;-40
2022/01/22 13:30:07;;;;;;;1.92;1.67;;;;;;;;;;6207196;23;20013;-41
2022/01/22 13:32:54;;;;;;;2.10;2.00;;;;;;;;;;6205368;23;20005;-41
2022/01/22 13:48:55;;;;;;;1.60;1.50;;;;;;;;;;6208473;23;20010;-40
2022/01/22 13:51:20;;;;;;;1.85;1.75;;;;;;;;;;6207392;23;20601;-39
2022/01/22 13:53:46;;;;;;;1.75;1.65;;;;;;;;;;6208718;23;20001;-40
2022/01/22 13:56:13;;;;;;;2.33;2.13;;;;;;;;;;6207372;23;20044;-40
2022/01/22 13:58:38;;;;;;;3.58;2.50;;;;;;;;;;6208943;23;20071;-40
2022/01/22 14:01:08;;;;;;;2.58;2.20;;;;;;;;;;6207497;23;20012;-39
2022/01/22 14:03:44;;;;;;;2.10;2.00;;;;;;;;;;6181717;23;20021;-39
2022/01/22 14:06:10;;;;;;;2.05;1.85;;;;;;;;;;6207582;23;20112;-39
2022/01/22 14:08:36;;;;;;;1.98;1.83;;;;;;;;;;6208106;23;20455;-39
2022/01/22 14:11:06;;;;;;;2.20;2.00;;;;;;;;;;6207893;23;20470;-41
2022/01/22 14:13:31;;;;;;;2.17;1.98;;;;;;;;;;6208944;23;20020;-39
2022/01/22 14:16:09;;;;;;;2.10;2.00;;;;;;;;;;6208248;23;20035;-38
2022/01/22 14:18:41;;;;;;;2.40;2.25;;;;;;;;;;6208308;23;20013;-41
2022/01/22 14:21:06;;;;;;;2.20;2.10;;;;;;;;;;6207814;23;20009;-39
2022/01/22 14:23:32;;;;;;;1.77;1.67;;;;;;;;;;6207967;23;20127;-41
2022/01/22 14:25:58;;;;;;;2.33;2.08;;;;;;;;;;6207915;23;20095;-41
2022/01/22 14:28:34;;;;;;;2.00;1.90;;;;;;;;;;6206259;23;20036;-41
2022/01/22 14:31:00;;;;;;;2.22;2.13;;;;;;;;;;6206897;23;20067;-41
2022/01/22 14:33:25;;;;;;;2.05;1.88;;;;;;;;;;6206897;23;20009;-40
2022/01/22 14:36:00;;;;;;;2.03;1.85;;;;;;;;;;6207341;23;20589;-40
2022/01/22 14:38:35;;;;;;;2.30;2.20;;;;;;;;;;6207338;23;20021;-40
2022/01/22 14:44:05;;;;;;;1.58;1.48;;;;;;;;;;6185379;23;20406;-40
2022/01/22 14:47:03;;;;;;;1.90;1.80;;;;;;;;;;6206494;23;20015;-41
2022/01/22 14:49:38;;;;;;;1.95;1.77;;;;;;;;;;6189742;23;20012;-40
2022/01/22 14:52:04;;;;;;;2.03;1.92;;;;;;;;;;6207042;23;20048;-40
2022/01/22 14:54:31;;;;;;;2.00;1.90;;;;;;;;;;6207806;23;20016;-40
2022/01/22 14:56:56;;;;;;;2.08;1.98;;;;;;;;;;6207618;23;20384;-40
2022/01/22 14:59:22;;;;;;;1.27;1.23;;;;;;;;;;6207769;23;20028;-40
2022/01/22 15:01:47;;;;;;;1.80;1.70;;;;;;;;;;6207699;23;20472;-40
2022/01/22 15:04:12;;;;;;;1.48;1.38;;;;;;;;;;6207138;23;20321;-40
2022/01/22 15:06:38;;;;;;;1.20;1.20;;;;;;;;;;6208235;23;20009;-41
2022/01/22 15:09:05;;;;;;;1.73;1.63;;;;;;;;;;6206927;23;20427;-40
2022/01/22 15:11:33;;;;;;;1.52;1.17;;;;;;;;;;6207189;23;20009;-40
2022/01/22 15:13:58;;;;;;;1.10;1.10;;;;;;;;;;6203469;23;20470;-40
2022/01/22 15:16:30;;;;;;;1.70;1.60;;;;;;;;;;6204915;23;20016;-40
2022/01/22 15:19:02;;;;;;;1.38;1.27;;;;;;;;;;6205400;23;20012;-41
2022/01/22 15:21:27;;;;;;;1.70;1.60;;;;;;;;;;6205345;23;20012;-41
2022/01/22 15:23:52;;;;;;;1.45;1.45;;;;;;;;;;6204760;23;20016;-41
2022/01/22 15:26:17;;;;;;;1.55;1.45;;;;;;;;;;6205659;23;20080;-40
2022/01/22 15:28:44;;;;;;;1.65;1.55;;;;;;;;;;6204995;23;20024;-43
2022/01/22 15:31:26;;;;;;;1.70;1.60;;;;;;;;;;6205285;23;20017;-40
2022/01/22 15:33:55;;;;;;;1.48;1.38;;;;;;;;;;6204767;23;20095;-42
2022/01/22 15:36:20;;;;;;;1.60;1.50;;;;;;;;;;6204136;23;20013;-41
2022/01/22 15:38:45;;;;;;;1.70;1.60;;;;;;;;;;6205301;23;20019;-41
2022/01/22 15:41:10;;;;;;;1.33;1.27;;;;;;;;;;6205199;23;20009;-41
2022/01/22 15:43:36;;;;;;;1.40;1.30;;;;;;;;;;6204692;23;20040;-40
2022/01/22 15:46:01;;;;;;;1.30;1.25;;;;;;;;;;6205271;23;20629;-40
2022/01/22 15:48:27;;;;;;;1.40;1.30;;;;;;;;;;6203551;23;20004;-41
2022/01/22 15:50:52;;;;;;;1.25;1.25;;;;;;;;;;6204796;23;20021;-40
2022/01/22 15:53:17;;;;;;;1.50;1.40;;;;;;;;;;6203215;23;20383;-40
2022/01/22 15:55:44;;;;;;;1.40;1.30;;;;;;;;;;6207300;23;20034;-42
2022/01/22 15:58:09;;;;;;;2.55;2.08;;;;;;;;;;6205286;23;20040;-41
2022/01/22 16:00:37;;;;;;;1.63;1.52;;;;;;;;;;6206201;23;20012;-40
2022/01/22 16:03:03;;;;;;;1.50;1.40;;;;;;;;;;6207001;23;20039;-41
2022/01/22 16:05:29;;;;;;;1.50;1.40;;;;;;;;;;6204156;23;20009;-41
2022/01/22 16:07:54;;;;;;;1.48;1.20;;;;;;;;;;6208366;23;20310;-41
2022/01/22 16:10:20;;;;;;;1.85;1.75;;;;;;;;;;6205401;23;20024;-41
2022/01/22 16:12:48;;;;;;;1.50;1.40;;;;;;;;;;6207673;23;20016;-40
2022/01/22 16:15:13;;;;;;;1.67;1.58;;;;;;;;;;6206844;23;20013;-41
2022/01/22 16:17:38;;;;;;;2.70;1.48;;;;;;;;;;6207573;23;20013;-40
2022/01/22 16:20:04;;;;;;;1.25;1.20;;;;;;;;;;6207110;23;20869;-40
2022/01/22 16:22:29;;;;;;;1.45;1.35;;;;;;;;;;6206865;23;20024;-40
2022/01/22 16:24:59;;;;;;;1.40;1.23;;;;;;;;;;6206831;23;20059;-40
2022/01/22 16:27:25;;;;;;;1.50;1.40;;;;;;;;;;6206809;23;20012;-40
2022/01/22 16:29:51;;;;;;;1.25;1.20;;;;;;;;;;6207205;23;20052;-40
2022/01/22 16:32:16;;;;;;;1.50;1.40;;;;;;;;;;6206840;23;20015;-40
2022/01/22 16:34:41;;;;;;;1.45;1.30;;;;;;;;;;6207012;23;20063;-40
2022/01/22 16:37:07;;;;;;;1.60;1.50;;;;;;;;;;6207590;23;20040;-40
2022/01/22 16:39:32;;;;;;;1.70;1.35;;;;;;;;;;6206603;23;20079;-41
2022/01/22 16:42:03;;;;;;;1.80;1.70;;;;;;;;;;6206665;23;20091;-41
2022/01/22 16:44:36;;;;;;;1.02;1.02;;;;;;;;;;6206822;23;20620;-41
2022/01/22 16:55:35;;;;;;;1.15;1.15;;;;;;;;;;6208089;23;20019;-40
2022/01/22 16:57:59;;;;;;;1.20;1.10;;;;;;;;;;6206344;23;20012;-40
2022/01/22 17:00:29;;;;;;;1.35;1.25;;;;;;;;;;6206604;23;20027;-40
2022/01/22 17:02:55;;;;;;;1.48;1.38;;;;;;;;;;6206662;23;20070;-40
2022/01/22 17:05:21;;;;;;;1.45;1.35;;;;;;;;;;6206230;23;20029;-40
2022/01/22 17:07:57;;;;;;;1.25;1.20;;;;;;;;;;6206360;23;20009;-40
2022/01/22 17:10:37;;;;;;;1.15;1.05;;;;;;;;;;6208111;23;20021;-40